PF1 CYXU-ZZZZ
Flight info
| Callsign | PF1 |
|---|---|
| Flight time | N/A |
| Altitude | 3000 |
| Route | VFR SOUTHBOUND |
| Aircraft | F16S |
Departure
| Time | 2026-05-05 02:41 |
|---|---|
| Airport | London International Airport (CYXU) |
Arrival
| Time | N/A |
|---|---|
| Airport | ZZZZ |
| Time | Latitude | Longitude | Altitude | Speed | Heading |
|---|---|---|---|---|---|
| 2026-05-05 02:39 | 43.02963 | -81.14937 | 899 ft | 0 kts | 219° |
| 2026-05-05 02:40 | 43.02996 | -81.14929 | 899 ft | 10 kts | 40° |
| 2026-05-05 02:40 | 43.03078 | -81.14929 | 899 ft | 19 kts | 315° |
| 2026-05-05 02:40 | 43.03226 | -81.15116 | 902 ft | 31 kts | 320° |
| 2026-05-05 02:40 | 43.03371 | -81.15031 | 907 ft | 23 kts | 46° |
| 2026-05-05 02:41 | 43.03265 | -81.14842 | 902 ft | 100 kts | 139° |
| 2026-05-05 02:41 | 43.02205 | -81.13574 | 1435 ft | 290 kts | 139° |
| 2026-05-05 02:41 | 43.00168 | -81.11151 | 2904 ft | 487 kts | 139° |
| 2026-05-05 02:41 | 42.97435 | -81.07239 | 5222 ft | 663 kts | 112° |
| 2026-05-05 02:42 | 43.16393 | -79.63894 | 16481 ft | 1171 kts | 76° |
| 2026-05-05 02:42 | 43.28977 | -79.51712 | 12119 ft | 1176 kts | 12° |
| 2026-05-05 02:42 | 43.82147 | -79.29176 | 8544 ft | 1043 kts | 22° |
| 2026-05-05 02:42 | 43.90589 | -79.14173 | 5717 ft | 1015 kts | 82° |
| 2026-05-05 02:43 | 44.03527 | -77.68242 | 45018 ft | 1181 kts | 82° |
| 2026-05-05 02:43 | 44.08011 | -77.22518 | 48510 ft | 1224 kts | 82° |
| 2026-05-05 02:43 | 44.12654 | -76.84407 | 46293 ft | 1256 kts | 74° |
| 2026-05-05 02:43 | 44.27868 | -76.37622 | 47468 ft | 1247 kts | 64° |
| 2026-05-05 02:44 | 44.83685 | -74.78658 | 51644 ft | 989 kts | 64° |
| 2026-05-05 02:44 | 45.21079 | -73.71185 | 25263 ft | 560 kts | 64° |
| 2026-05-05 02:44 | 45.37572 | -73.23376 | 3326 ft | 128 kts | 64° |
| 2026-05-05 02:44 | 45.39336 | -73.18220 | 127 ft | 0 kts | 63° |